Time;durP1;ratioP1;P1;durP2;ratioP2;P2;SDS_P1;SDS_P2;PMS_P1;PMS_P2;Temp;Humidity;BMP_temperature;BMP_pressure;BME280_temperature;BME280_humidity;BME280_pressure;Samples;Min_cycle;Max_cycle;Signal;HPM_P1;HPM_P2
2021/10/28 00:12:21;;;;;;;;;;;;;;;;;;348354;28;1285;-80
2021/10/28 00:12:39;;;;;;;;;;;;;;;;;;348555;28;806;-79
2021/10/28 00:13:07;;;;;;;;;;;;;;;;;;347148;28;920;-79
2021/10/28 00:13:19;;;;;;;;;;;;;;;;;;345748;28;1452;-77
2021/10/28 00:13:32;;;;;;;;;;;;;;;;;;345749;28;1086;-77
2021/10/28 00:13:44;;;;;;;;;;;;;;;;;;345818;28;1101;-79
2021/10/28 00:13:56;;;;;;;;;;;;;;;;;;344341;28;1261;-80
2021/10/28 00:14:32;;;;;;;;;;;;;;;;;;342989;28;937;-78
2021/10/28 00:14:44;;;;;;;;;;;;;;;;;;344465;28;972;-79
2021/10/28 00:14:56;;;;;;;;;;;;;;;;;;344449;28;818;-76
2021/10/28 00:15:12;;;;;;;;;;;;;;;;;;343110;28;846;-78
2021/10/28 00:15:37;;;;;;;;;;;;;;;;;;343083;28;929;-76
2021/10/28 00:15:56;;;;;;;;;;;;;;;;;;341844;28;1496;-78
2021/10/28 00:16:50;;;;;;;;;;;;;;;;;;344229;28;937;-80
2021/10/28 00:17:08;;;;;;;;;;;;;;;;;;344303;28;1306;-77
2021/10/28 00:17:24;;;;;;;;;;;;;;;;;;342994;28;1687;-74
2021/10/28 00:18:04;;;;;;;;;;;;;;;;;;343024;28;941;-76
2021/10/28 00:18:17;;;;;;;;;;;;;;;;;;348490;28;1039;-80
2021/10/28 00:18:50;;;;;;;;;;;;;;;;;;348513;28;873;-77
2021/10/28 00:19:01;;;;;;;;;;;;;;;;;;347982;28;1116;-78
2021/10/28 00:19:12;;;;;;;;;;;;;;;;;;347517;28;1007;-79
2021/10/28 00:19:22;;;;;;;;;;;;;;;;;;347195;28;980;-77
2021/10/28 00:19:33;;;;;;;;;;;;;;;;;;347170;28;925;-79
2021/10/28 00:19:44;;;;;;;;;;;;;;;;;;347091;28;850;-79
2021/10/28 00:19:54;;;;;;;;;;;;;;;;;;347047;28;1670;-79
2021/10/28 00:20:06;;;;;;;;;;;;;;;;;;345601;28;1264;-80
2021/10/28 00:20:42;;;;;;;;;;;;;;;;;;345737;28;985;-79
2021/10/28 00:20:56;;;;;;;;;;;;;;;;;;345734;28;949;-77
2021/10/28 00:21:07;;;;;;;;;;;;;;;;;;346147;28;930;-79
2021/10/28 00:21:17;;;;;;;;;;;;;;;;;;346900;28;937;-77
2021/10/28 00:21:30;;;;;;;;;;;;;;;;;;347167;28;976;-78
2021/10/28 00:21:41;;;;;;;;;;;;;;;;;;347132;28;992;-78
2021/10/28 00:21:51;;;;;;;;;;;;;;;;;;345612;28;1314;-80
2021/10/28 00:22:28;;;;;;;;;;;;;;;;;;348516;28;981;-78
2021/10/28 00:22:39;;;;;;;;;;;;;;;;;;348481;28;925;-80
2021/10/28 00:22:50;;;;;;;;;;;;;;;;;;348533;28;829;-77
2021/10/28 00:23:02;;;;;;;;;;;;;;;;;;347067;28;1906;-75
2021/10/28 00:23:28;;;;;;;;;;;;;;;;;;347106;28;932;-79
2021/10/28 00:24:08;;;;;;;;;;;;;;;;;;348504;28;1130;-77
2021/10/28 00:24:19;;;;;;;;;;;;;;;;;;348481;28;968;-73
2021/10/28 00:24:29;;;;;;;;;;;;;;;;;;347033;28;1133;-72
2021/10/28 00:25:18;;;;;;;;;;;;;;;;;;348466;28;1015;-74
2021/10/28 00:25:36;;;;;;;;;;;;;;;;;;348551;28;846;-80
2021/10/28 00:25:46;;;;;;;;;;;;;;;;;;348390;28;893;-80
2021/10/28 00:25:57;;;;;;;;;;;;;;;;;;347063;28;1302;-77
2021/10/28 00:26:08;;;;;;;;;;;;;;;;;;347090;28;985;-77
2021/10/28 00:26:18;;;;;;;;;;;;;;;;;;346858;28;1262;-80
2021/10/28 00:26:29;;;;;;;;;;;;;;;;;;347102;28;845;-76
2021/10/28 00:26:42;;;;;;;;;;;;;;;;;;345798;28;929;-74
2021/10/28 00:26:53;;;;;;;;;;;;;;;;;;345761;28;921;-80
2021/10/28 00:27:04;;;;;;;;;;;;;;;;;;345737;28;976;-77
2021/10/28 00:27:15;;;;;;;;;;;;;;;;;;345710;28;909;-76
2021/10/28 00:27:25;;;;;;;;;;;;;;;;;;345811;28;925;-78
2021/10/28 00:27:51;;;;;;;;;;;;;;;;;;342869;28;1297;-78
2021/10/28 00:28:33;;;;;;;;;;;;;;;;;;346026;28;953;-75
2021/10/28 00:28:44;;;;;;;;;;;;;;;;;;347141;28;814;-76
2021/10/28 00:28:59;;;;;;;;;;;;;;;;;;347133;28;968;-77
2021/10/28 00:29:11;;;;;;;;;;;;;;;;;;345657;28;1434;-75
2021/10/28 00:29:23;;;;;;;;;;;;;;;;;;345737;28;850;-79
2021/10/28 00:29:49;;;;;;;;;;;;;;;;;;346648;28;996;-79
2021/10/28 00:30:32;;;;;;;;;;;;;;;;;;348465;28;869;-81
2021/10/28 00:30:42;;;;;;;;;;;;;;;;;;348538;28;755;-81
2021/10/28 00:30:53;;;;;;;;;;;;;;;;;;347043;28;1412;-75
2021/10/28 00:31:06;;;;;;;;;;;;;;;;;;346071;28;1004;-77
2021/10/28 00:31:32;;;;;;;;;;;;;;;;;;345603;28;1293;-75
2021/10/28 00:31:44;;;;;;;;;;;;;;;;;;345778;28;981;-75
2021/10/28 00:31:57;;;;;;;;;;;;;;;;;;345765;28;1071;-79
2021/10/28 00:32:07;;;;;;;;;;;;;;;;;;345770;28;955;-77
2021/10/28 00:32:18;;;;;;;;;;;;;;;;;;345680;28;810;-77
2021/10/28 00:32:31;;;;;;;;;;;;;;;;;;345731;28;999;-80
2021/10/28 00:32:42;;;;;;;;;;;;;;;;;;345635;28;971;-77
2021/10/28 00:32:59;;;;;;;;;;;;;;;;;;346229;28;972;-77
2021/10/28 00:33:35;;;;;;;;;;;;;;;;;;348483;28;937;-79
2021/10/28 00:34:20;;;;;;;;;;;;;;;;;;348435;28;1003;-79
2021/10/28 00:34:31;;;;;;;;;;;;;;;;;;348416;28;826;-79
2021/10/28 00:34:48;;;;;;;;;;;;;;;;;;346958;28;1302;-80
2021/10/28 00:34:58;;;;;;;;;;;;;;;;;;345733;28;981;-76
2021/10/28 00:35:09;;;;;;;;;;;;;;;;;;345731;28;1075;-77
2021/10/28 00:35:45;;;;;;;;;;;;;;;;;;344441;28;949;-79
2021/10/28 00:35:55;;;;;;;;;;;;;;;;;;344377;28;1025;-80
2021/10/28 00:36:06;;;;;;;;;;;;;;;;;;344437;28;815;-79
2021/10/28 00:36:17;;;;;;;;;;;;;;;;;;344322;28;945;-76
2021/10/28 00:36:28;;;;;;;;;;;;;;;;;;344959;28;985;-78
2021/10/28 00:37:05;;;;;;;;;;;;;;;;;;347144;28;838;-80
2021/10/28 00:37:15;;;;;;;;;;;;;;;;;;348439;28;873;-79
2021/10/28 00:37:26;;;;;;;;;;;;;;;;;;348531;28;770;-79
2021/10/28 00:37:37;;;;;;;;;;;;;;;;;;345572;28;1324;-78
2021/10/28 00:37:47;;;;;;;;;;;;;;;;;;345790;28;1000;-77
2021/10/28 00:37:58;;;;;;;;;;;;;;;;;;345726;28;799;-79
2021/10/28 00:38:08;;;;;;;;;;;;;;;;;;345716;28;969;-80
2021/10/28 00:38:19;;;;;;;;;;;;;;;;;;345785;28;870;-81
2021/10/28 00:38:30;;;;;;;;;;;;;;;;;;344120;28;1281;-80
2021/10/28 00:38:41;;;;;;;;;;;;;;;;;;344385;28;873;-79
2021/10/28 00:38:53;;;;;;;;;;;;;;;;;;344449;28;973;-80
2021/10/28 00:39:04;;;;;;;;;;;;;;;;;;342921;28;1072;-78
2021/10/28 00:39:15;;;;;;;;;;;;;;;;;;343069;28;795;-80
2021/10/28 00:39:51;;;;;;;;;;;;;;;;;;343290;28;866;-78
2021/10/28 00:40:01;;;;;;;;;;;;;;;;;;344412;28;822;-79
2021/10/28 00:40:12;;;;;;;;;;;;;;;;;;343125;28;1299;-80
2021/10/28 00:40:22;;;;;;;;;;;;;;;;;;343065;28;1449;-80
2021/10/28 00:40:33;;;;;;;;;;;;;;;;;;344418;28;921;-80
2021/10/28 00:40:43;;;;;;;;;;;;;;;;;;344405;28;819;-79
2021/10/28 00:40:54;;;;;;;;;;;;;;;;;;343069;28;842;-78
2021/10/28 00:41:04;;;;;;;;;;;;;;;;;;343052;28;934;-80
2021/10/28 00:41:16;;;;;;;;;;;;;;;;;;342834;28;1157;-79
2021/10/28 00:41:26;;;;;;;;;;;;;;;;;;344032;28;1335;-79
2021/10/28 00:41:38;;;;;;;;;;;;;;;;;;344313;28;945;-78
2021/10/28 00:42:04;;;;;;;;;;;;;;;;;;344296;28;1466;-80
2021/10/28 00:42:15;;;;;;;;;;;;;;;;;;344403;28;1056;-82
2021/10/28 00:42:44;;;;;;;;;;;;;;;;;;345672;28;913;-80
2021/10/28 00:43:00;;;;;;;;;;;;;;;;;;345677;28;1960;-75
2021/10/28 00:43:11;;;;;;;;;;;;;;;;;;346434;28;983;-80
2021/10/28 00:43:22;;;;;;;;;;;;;;;;;;345638;28;1296;-77
2021/10/28 00:43:34;;;;;;;;;;;;;;;;;;345655;28;854;-78
2021/10/28 00:44:19;;;;;;;;;;;;;;;;;;347081;28;960;-77
2021/10/28 00:44:29;;;;;;;;;;;;;;;;;;347061;28;803;-76
2021/10/28 00:44:43;;;;;;;;;;;;;;;;;;347096;28;976;-74
2021/10/28 00:45:00;;;;;;;;;;;;;;;;;;347131;28;988;-79
2021/10/28 00:45:10;;;;;;;;;;;;;;;;;;348192;28;1004;-79
2021/10/28 00:45:23;;;;;;;;;;;;;;;;;;349600;28;893;-79
2021/10/28 00:45:33;;;;;;;;;;;;;;;;;;346947;28;1235;-79
2021/10/28 00:45:50;;;;;;;;;;;;;;;;;;346965;28;985;-79
2021/10/28 00:46:22;;;;;;;;;;;;;;;;;;345639;28;1144;-80
2021/10/28 00:46:33;;;;;;;;;;;;;;;;;;345592;28;989;-75
2021/10/28 00:46:43;;;;;;;;;;;;;;;;;;344298;28;933;-77
2021/10/28 00:46:54;;;;;;;;;;;;;;;;;;344425;28;999;-81
2021/10/28 00:47:06;;;;;;;;;;;;;;;;;;342747;28;1400;-80
2021/10/28 00:47:46;;;;;;;;;;;;;;;;;;345686;28;1001;-80
2021/10/28 00:47:57;;;;;;;;;;;;;;;;;;345693;28;798;-81
2021/10/28 00:48:07;;;;;;;;;;;;;;;;;;347086;28;877;-81
2021/10/28 00:48:18;;;;;;;;;;;;;;;;;;345665;28;1339;-80
2021/10/28 00:48:31;;;;;;;;;;;;;;;;;;345777;28;870;-79
2021/10/28 00:48:41;;;;;;;;;;;;;;;;;;345741;28;806;-82
2021/10/28 00:48:52;;;;;;;;;;;;;;;;;;345701;28;1108;-78
2021/10/28 00:49:03;;;;;;;;;;;;;;;;;;346704;28;822;-78
2021/10/28 00:49:14;;;;;;;;;;;;;;;;;;345907;28;1157;-76
2021/10/28 00:49:24;;;;;;;;;;;;;;;;;;345688;28;1181;-77
2021/10/28 00:49:35;;;;;;;;;;;;;;;;;;344324;28;1155;-76
2021/10/28 00:49:45;;;;;;;;;;;;;;;;;;344361;28;933;-78
2021/10/28 00:49:55;;;;;;;;;;;;;;;;;;344372;28;799;-80
2021/10/28 00:50:06;;;;;;;;;;;;;;;;;;344281;28;942;-79
2021/10/28 00:50:17;;;;;;;;;;;;;;;;;;345742;28;818;-77
2021/10/28 00:50:28;;;;;;;;;;;;;;;;;;345761;28;806;-81
2021/10/28 00:50:38;;;;;;;;;;;;;;;;;;345435;28;989;-81
2021/10/28 00:50:55;;;;;;;;;;;;;;;;;;345623;28;1300;-79
2021/10/28 00:51:07;;;;;;;;;;;;;;;;;;346926;28;1536;-79
2021/10/28 00:51:19;;;;;;;;;;;;;;;;;;345740;28;985;-81
2021/10/28 00:51:31;;;;;;;;;;;;;;;;;;345556;28;929;-78
2021/10/28 00:52:23;;;;;;;;;;;;;;;;;;344347;28;973;-80
2021/10/28 00:53:03;;;;;;;;;;;;;;;;;;346464;28;993;-77
2021/10/28 00:53:41;;;;;;;;;;;;;;;;;;348411;28;921;-75
2021/10/28 00:54:29;;;;;;;;;;;;;;;;;;348887;28;818;-80
2021/10/28 00:54:41;;;;;;;;;;;;;;;;;;349962;28;916;-79
2021/10/28 00:54:52;;;;;;;;;;;;;;;;;;348099;28;1208;-76
2021/10/28 00:55:03;;;;;;;;;;;;;;;;;;347132;28;969;-81
2021/10/28 00:55:13;;;;;;;;;;;;;;;;;;347109;28;866;-81
2021/10/28 00:55:24;;;;;;;;;;;;;;;;;;345628;28;1310;-81
2021/10/28 00:55:35;;;;;;;;;;;;;;;;;;344388;28;870;-74
2021/10/28 00:55:46;;;;;;;;;;;;;;;;;;344435;28;823;-80
2021/10/28 00:55:56;;;;;;;;;;;;;;;;;;344383;28;973;-78
2021/10/28 00:56:06;;;;;;;;;;;;;;;;;;344340;28;1141;-75
2021/10/28 00:56:17;;;;;;;;;;;;;;;;;;344406;28;940;-77
2021/10/28 00:56:29;;;;;;;;;;;;;;;;;;344275;28;815;-77
2021/10/28 00:56:41;;;;;;;;;;;;;;;;;;344186;28;1421;-78
2021/10/28 00:56:52;;;;;;;;;;;;;;;;;;342894;28;1350;-80
2021/10/28 00:57:04;;;;;;;;;;;;;;;;;;344218;28;838;-81
2021/10/28 00:57:14;;;;;;;;;;;;;;;;;;344356;28;807;-76
2021/10/28 00:57:24;;;;;;;;;;;;;;;;;;344231;28;1596;-77
2021/10/28 00:57:35;;;;;;;;;;;;;;;;;;345577;28;810;-77
2021/10/28 00:57:46;;;;;;;;;;;;;;;;;;345725;28;898;-80
2021/10/28 00:57:57;;;;;;;;;;;;;;;;;;345755;28;1048;-75
2021/10/28 00:58:09;;;;;;;;;;;;;;;;;;344314;28;1306;-79
2021/10/28 00:58:23;;;;;;;;;;;;;;;;;;343072;28;938;-78
2021/10/28 00:58:34;;;;;;;;;;;;;;;;;;343539;28;862;-77
2021/10/28 00:58:50;;;;;;;;;;;;;;;;;;343156;28;1391;-76
2021/10/28 00:59:01;;;;;;;;;;;;;;;;;;342985;28;811;-80
2021/10/28 00:59:37;;;;;;;;;;;;;;;;;;344342;28;846;-80
2021/10/28 00:59:48;;;;;;;;;;;;;;;;;;344407;28;922;-77
2021/10/28 01:00:24;;;;;;;;;;;;;;;;;;347091;28;831;-76
2021/10/28 01:00:35;;;;;;;;;;;;;;;;;;345693;28;1682;-78
2021/10/28 01:00:45;;;;;;;;;;;;;;;;;;347022;28;912;-77
2021/10/28 01:00:56;;;;;;;;;;;;;;;;;;346987;28;1271;-77
2021/10/28 01:01:06;;;;;;;;;;;;;;;;;;347114;28;1024;-76
2021/10/28 01:01:17;;;;;;;;;;;;;;;;;;346755;28;1281;-75
2021/10/28 01:01:28;;;;;;;;;;;;;;;;;;347048;28;826;-78
2021/10/28 01:01:39;;;;;;;;;;;;;;;;;;345583;28;965;-74
2021/10/28 01:01:50;;;;;;;;;;;;;;;;;;345616;28;1052;-78
2021/10/28 01:02:00;;;;;;;;;;;;;;;;;;345744;28;810;-80
2021/10/28 01:02:11;;;;;;;;;;;;;;;;;;345775;28;841;-78
2021/10/28 01:02:21;;;;;;;;;;;;;;;;;;345771;28;822;-79
2021/10/28 01:02:32;;;;;;;;;;;;;;;;;;346624;28;925;-79
2021/10/28 01:02:43;;;;;;;;;;;;;;;;;;346927;28;1212;-80
2021/10/28 01:02:53;;;;;;;;;;;;;;;;;;347147;28;897;-78
2021/10/28 01:03:03;;;;;;;;;;;;;;;;;;346761;28;1967;-80
2021/10/28 01:03:14;;;;;;;;;;;;;;;;;;345780;28;1037;-80
2021/10/28 01:03:24;;;;;;;;;;;;;;;;;;345741;28;818;-80
2021/10/28 01:03:35;;;;;;;;;;;;;;;;;;345699;28;799;-81
2021/10/28 01:03:46;;;;;;;;;;;;;;;;;;345761;28;866;-77
2021/10/28 01:03:59;;;;;;;;;;;;;;;;;;345673;28;1186;-76
2021/10/28 01:04:09;;;;;;;;;;;;;;;;;;345694;28;1099;-77
2021/10/28 01:04:20;;;;;;;;;;;;;;;;;;345713;28;906;-78
2021/10/28 01:04:30;;;;;;;;;;;;;;;;;;345720;28;993;-77
2021/10/28 01:04:41;;;;;;;;;;;;;;;;;;344319;28;1173;-78
2021/10/28 01:05:07;;;;;;;;;;;;;;;;;;344289;28;1452;-80
2021/10/28 01:05:18;;;;;;;;;;;;;;;;;;344376;28;1237;-79
2021/10/28 01:05:35;;;;;;;;;;;;;;;;;;345361;28;1507;-76
2021/10/28 01:05:57;;;;;;;;;;;;;;;;;;345682;28;1147;-73
2021/10/28 01:06:36;;;;;;;;;;;;;;;;;;345701;28;866;-79
2021/10/28 01:06:47;;;;;;;;;;;;;;;;;;346100;28;866;-76
2021/10/28 01:06:58;;;;;;;;;;;;;;;;;;347052;28;827;-80
2021/10/28 01:07:09;;;;;;;;;;;;;;;;;;347095;28;992;-80
2021/10/28 01:07:19;;;;;;;;;;;;;;;;;;346956;28;1160;-77
2021/10/28 01:07:30;;;;;;;;;;;;;;;;;;347599;28;854;-78
2021/10/28 01:07:40;;;;;;;;;;;;;;;;;;346952;28;1323;-79
2021/10/28 01:08:17;;;;;;;;;;;;;;;;;;347066;28;1020;-74
2021/10/28 01:08:28;;;;;;;;;;;;;;;;;;347071;28;917;-75
2021/10/28 01:08:41;;;;;;;;;;;;;;;;;;346716;28;956;-76
2021/10/28 01:08:52;;;;;;;;;;;;;;;;;;347086;28;846;-75
2021/10/28 01:09:03;;;;;;;;;;;;;;;;;;347100;28;996;-77
2021/10/28 01:09:14;;;;;;;;;;;;;;;;;;347598;28;980;-80
2021/10/28 01:09:24;;;;;;;;;;;;;;;;;;347124;28;803;-74
2021/10/28 01:09:34;;;;;;;;;;;;;;;;;;347484;28;973;-77
2021/10/28 01:09:45;;;;;;;;;;;;;;;;;;347000;28;2864;-77
2021/10/28 01:09:55;;;;;;;;;;;;;;;;;;347062;28;925;-77
2021/10/28 01:10:07;;;;;;;;;;;;;;;;;;345555;28;1170;-79
2021/10/28 01:10:17;;;;;;;;;;;;;;;;;;345740;28;996;-79
2021/10/28 01:10:27;;;;;;;;;;;;;;;;;;344401;28;815;-80
2021/10/28 01:10:38;;;;;;;;;;;;;;;;;;344377;28;1039;-75
2021/10/28 01:10:49;;;;;;;;;;;;;;;;;;344347;28;1000;-73
2021/10/28 01:11:00;;;;;;;;;;;;;;;;;;344421;28;869;-72
2021/10/28 01:11:10;;;;;;;;;;;;;;;;;;345620;28;1147;-75
2021/10/28 01:11:21;;;;;;;;;;;;;;;;;;345728;28;1066;-71
2021/10/28 01:11:32;;;;;;;;;;;;;;;;;;346665;28;1018;-72
2021/10/28 01:11:43;;;;;;;;;;;;;;;;;;346956;28;1375;-77
2021/10/28 01:12:35;;;;;;;;;;;;;;;;;;347027;28;960;-79
2021/10/28 01:12:45;;;;;;;;;;;;;;;;;;347020;28;977;-80
2021/10/28 01:13:22;;;;;;;;;;;;;;;;;;345595;28;1702;-78
2021/10/28 01:13:34;;;;;;;;;;;;;;;;;;345699;28;969;-77
2021/10/28 01:13:45;;;;;;;;;;;;;;;;;;347101;28;764;-78
2021/10/28 01:13:56;;;;;;;;;;;;;;;;;;345701;28;976;-77
2021/10/28 01:14:39;;;;;;;;;;;;;;;;;;344186;28;981;-78
2021/10/28 01:14:50;;;;;;;;;;;;;;;;;;344603;28;1342;-74
2021/10/28 01:15:00;;;;;;;;;;;;;;;;;;345675;28;909;-77
2021/10/28 01:15:37;;;;;;;;;;;;;;;;;;347068;28;961;-76
2021/10/28 01:15:48;;;;;;;;;;;;;;;;;;345728;28;980;-78
2021/10/28 01:15:58;;;;;;;;;;;;;;;;;;345665;28;972;-76
2021/10/28 01:16:09;;;;;;;;;;;;;;;;;;347077;28;1032;-76
2021/10/28 01:16:20;;;;;;;;;;;;;;;;;;347068;28;1031;-79
2021/10/28 01:16:36;;;;;;;;;;;;;;;;;;347122;28;1020;-76
2021/10/28 01:16:56;;;;;;;;;;;;;;;;;;348296;28;1051;-75
2021/10/28 01:17:07;;;;;;;;;;;;;;;;;;348441;28;862;-79
2021/10/28 01:17:17;;;;;;;;;;;;;;;;;;348409;28;984;-80
2021/10/28 01:17:31;;;;;;;;;;;;;;;;;;348509;28;795;-81
2021/10/28 01:17:51;;;;;;;;;;;;;;;;;;348861;28;834;-75
2021/10/28 01:18:08;;;;;;;;;;;;;;;;;;349889;28;1036;-76
2021/10/28 01:18:19;;;;;;;;;;;;;;;;;;348371;28;1573;-73
2021/10/28 01:18:30;;;;;;;;;;;;;;;;;;348482;28;759;-79
2021/10/28 01:18:42;;;;;;;;;;;;;;;;;;346959;28;1425;-80
2021/10/28 01:18:53;;;;;;;;;;;;;;;;;;347014;28;937;-75
2021/10/28 01:19:03;;;;;;;;;;;;;;;;;;344102;28;1385;-75
2021/10/28 01:19:14;;;;;;;;;;;;;;;;;;342947;28;1130;-78
2021/10/28 01:19:25;;;;;;;;;;;;;;;;;;343030;28;997;-80
2021/10/28 01:19:35;;;;;;;;;;;;;;;;;;342696;28;1371;-76
2021/10/28 01:19:54;;;;;;;;;;;;;;;;;;342756;28;1360;-78
2021/10/28 01:20:05;;;;;;;;;;;;;;;;;;343057;28;823;-79
2021/10/28 01:20:15;;;;;;;;;;;;;;;;;;342965;28;1448;-78
2021/10/28 01:20:26;;;;;;;;;;;;;;;;;;342926;28;1150;-80
2021/10/28 01:20:38;;;;;;;;;;;;;;;;;;342996;28;980;-77
2021/10/28 01:20:50;;;;;;;;;;;;;;;;;;342908;28;983;-79
2021/10/28 01:21:01;;;;;;;;;;;;;;;;;;343026;28;918;-71
2021/10/28 01:21:11;;;;;;;;;;;;;;;;;;342925;28;981;-73
2021/10/28 01:21:53;;;;;;;;;;;;;;;;;;345659;28;882;-76
2021/10/28 01:22:10;;;;;;;;;;;;;;;;;;344184;28;1449;-78
2021/10/28 01:22:21;;;;;;;;;;;;;;;;;;346370;28;945;-75
2021/10/28 01:22:32;;;;;;;;;;;;;;;;;;347074;28;826;-74
2021/10/28 01:22:43;;;;;;;;;;;;;;;;;;345734;28;1440;-74
2021/10/28 01:22:54;;;;;;;;;;;;;;;;;;344560;28;1198;-78
2021/10/28 01:23:05;;;;;;;;;;;;;;;;;;344305;28;1882;-82
2021/10/28 01:23:16;;;;;;;;;;;;;;;;;;344343;28;1123;-81
2021/10/28 01:23:26;;;;;;;;;;;;;;;;;;344287;28;938;-74
2021/10/28 01:23:40;;;;;;;;;;;;;;;;;;342925;28;1125;-72
2021/10/28 01:23:51;;;;;;;;;;;;;;;;;;341583;29;1146;-81
2021/10/28 01:24:01;;;;;;;;;;;;;;;;;;342582;28;827;-78
2021/10/28 01:24:12;;;;;;;;;;;;;;;;;;343041;28;989;-81
2021/10/28 01:24:22;;;;;;;;;;;;;;;;;;341621;29;1397;-82
2021/10/28 01:24:33;;;;;;;;;;;;;;;;;;341769;29;855;-75
2021/10/28 01:24:43;;;;;;;;;;;;;;;;;;342997;28;1084;-78
2021/10/28 01:24:53;;;;;;;;;;;;;;;;;;342977;28;1260;-79
2021/10/28 01:25:04;;;;;;;;;;;;;;;;;;343009;28;1474;-79
2021/10/28 01:25:14;;;;;;;;;;;;;;;;;;343042;28;993;-78
2021/10/28 01:25:25;;;;;;;;;;;;;;;;;;343016;28;905;-80
2021/10/28 01:25:36;;;;;;;;;;;;;;;;;;343874;28;1152;-79
2021/10/28 01:26:19;;;;;;;;;;;;;;;;;;344993;28;969;-73
2021/10/28 01:26:29;;;;;;;;;;;;;;;;;;345735;28;1005;-72
2021/10/28 01:26:43;;;;;;;;;;;;;;;;;;346374;28;1028;-74
2021/10/28 01:27:03;;;;;;;;;;;;;;;;;;348990;28;1044;-76
2021/10/28 01:27:13;;;;;;;;;;;;;;;;;;349478;28;1049;-80
2021/10/28 01:27:24;;;;;;;;;;;;;;;;;;348237;28;1251;-79
2021/10/28 01:27:34;;;;;;;;;;;;;;;;;;348448;28;921;-79
2021/10/28 01:27:45;;;;;;;;;;;;;;;;;;348390;28;1177;-76
2021/10/28 01:27:58;;;;;;;;;;;;;;;;;;346971;28;807;-80
2021/10/28 01:28:15;;;;;;;;;;;;;;;;;;347061;28;901;-75
2021/10/28 01:28:28;;;;;;;;;;;;;;;;;;347069;28;826;-81
2021/10/28 01:28:59;;;;;;;;;;;;;;;;;;347035;28;1015;-79
2021/10/28 01:29:09;;;;;;;;;;;;;;;;;;346730;28;1022;-75
2021/10/28 01:29:19;;;;;;;;;;;;;;;;;;345594;28;1273;-73
2021/10/28 01:29:31;;;;;;;;;;;;;;;;;;345754;28;1020;-77
2021/10/28 01:29:42;;;;;;;;;;;;;;;;;;346477;28;843;-80
2021/10/28 01:29:52;;;;;;;;;;;;;;;;;;347915;28;945;-81
2021/10/28 01:30:04;;;;;;;;;;;;;;;;;;348249;28;1040;-81
2021/10/28 01:30:14;;;;;;;;;;;;;;;;;;348439;28;885;-76
2021/10/28 01:30:25;;;;;;;;;;;;;;;;;;348388;28;1035;-74
2021/10/28 01:30:35;;;;;;;;;;;;;;;;;;348404;28;876;-71
2021/10/28 01:30:50;;;;;;;;;;;;;;;;;;348501;28;794;-73
2021/10/28 01:31:01;;;;;;;;;;;;;;;;;;348457;28;909;-78
2021/10/28 01:31:12;;;;;;;;;;;;;;;;;;348540;28;1043;-74
2021/10/28 01:31:23;;;;;;;;;;;;;;;;;;348402;28;929;-72
2021/10/28 01:31:34;;;;;;;;;;;;;;;;;;348438;28;1028;-76
2021/10/28 01:31:45;;;;;;;;;;;;;;;;;;346959;28;953;-79
2021/10/28 01:32:04;;;;;;;;;;;;;;;;;;347087;28;941;-79
2021/10/28 01:32:14;;;;;;;;;;;;;;;;;;346812;28;1255;-73
2021/10/28 01:32:25;;;;;;;;;;;;;;;;;;346955;28;952;-75
2021/10/28 01:32:35;;;;;;;;;;;;;;;;;;345580;28;1092;-78
2021/10/28 01:32:46;;;;;;;;;;;;;;;;;;345749;28;886;-77
2021/10/28 01:32:56;;;;;;;;;;;;;;;;;;346606;28;971;-76
2021/10/28 01:33:07;;;;;;;;;;;;;;;;;;347046;28;916;-76
2021/10/28 01:33:43;;;;;;;;;;;;;;;;;;347085;28;929;-76
2021/10/28 01:34:20;;;;;;;;;;;;;;;;;;345745;28;909;-78
2021/10/28 01:34:31;;;;;;;;;;;;;;;;;;346142;28;1012;-79
2021/10/28 01:34:58;;;;;;;;;;;;;;;;;;347109;28;873;-76
2021/10/28 01:35:14;;;;;;;;;;;;;;;;;;346425;28;941;-72
2021/10/28 01:35:25;;;;;;;;;;;;;;;;;;347102;28;850;-74
2021/10/28 01:36:01;;;;;;;;;;;;;;;;;;345666;28;1020;-79
2021/10/28 01:36:11;;;;;;;;;;;;;;;;;;345699;28;1134;-77
2021/10/28 01:36:22;;;;;;;;;;;;;;;;;;345641;28;921;-79
2021/10/28 01:36:33;;;;;;;;;;;;;;;;;;345296;28;1150;-74
2021/10/28 01:36:44;;;;;;;;;;;;;;;;;;345567;28;834;-74
2021/10/28 01:36:56;;;;;;;;;;;;;;;;;;344250;28;1394;-79
2021/10/28 01:37:08;;;;;;;;;;;;;;;;;;344416;28;811;-72
2021/10/28 01:37:18;;;;;;;;;;;;;;;;;;344306;28;945;-78
2021/10/28 01:37:55;;;;;;;;;;;;;;;;;;347068;28;897;-76
2021/10/28 01:38:05;;;;;;;;;;;;;;;;;;347079;28;917;-80
2021/10/28 01:38:17;;;;;;;;;;;;;;;;;;346974;28;1417;-80
2021/10/28 01:38:27;;;;;;;;;;;;;;;;;;347545;28;1084;-76
2021/10/28 01:39:15;;;;;;;;;;;;;;;;;;348350;28;1426;-73
2021/10/28 01:39:25;;;;;;;;;;;;;;;;;;346979;28;1272;-74
2021/10/28 01:39:36;;;;;;;;;;;;;;;;;;345362;28;1267;-75
2021/10/28 01:39:46;;;;;;;;;;;;;;;;;;345717;28;866;-73
2021/10/28 01:40:22;;;;;;;;;;;;;;;;;;345692;28;1013;-73
2021/10/28 01:40:32;;;;;;;;;;;;;;;;;;344272;28;1285;-77
2021/10/28 01:40:51;;;;;;;;;;;;;;;;;;344125;28;943;-79
2021/10/28 01:41:02;;;;;;;;;;;;;;;;;;344332;28;822;-73
2021/10/28 01:41:13;;;;;;;;;;;;;;;;;;344230;28;1028;-75
2021/10/28 01:41:26;;;;;;;;;;;;;;;;;;344027;28;1299;-80
2021/10/28 01:41:37;;;;;;;;;;;;;;;;;;347072;28;937;-81
2021/10/28 01:41:47;;;;;;;;;;;;;;;;;;345516;28;1040;-78
2021/10/28 01:41:58;;;;;;;;;;;;;;;;;;345727;28;869;-81
2021/10/28 01:42:09;;;;;;;;;;;;;;;;;;345693;28;924;-79
2021/10/28 01:42:20;;;;;;;;;;;;;;;;;;345726;28;893;-76
2021/10/28 01:42:30;;;;;;;;;;;;;;;;;;344279;28;842;-74
2021/10/28 01:42:48;;;;;;;;;;;;;;;;;;342662;28;1215;-76
2021/10/28 01:42:58;;;;;;;;;;;;;;;;;;343060;28;901;-79
2021/10/28 01:43:08;;;;;;;;;;;;;;;;;;342892;28;1925;-76
2021/10/28 01:43:19;;;;;;;;;;;;;;;;;;343000;28;1032;-81
2021/10/28 01:43:30;;;;;;;;;;;;;;;;;;342847;28;1121;-75
2021/10/28 01:43:41;;;;;;;;;;;;;;;;;;343424;28;981;-78
2021/10/28 01:43:53;;;;;;;;;;;;;;;;;;344360;28;818;-74
2021/10/28 01:44:04;;;;;;;;;;;;;;;;;;344941;28;981;-80
2021/10/28 01:44:14;;;;;;;;;;;;;;;;;;345641;28;897;-79
2021/10/28 01:44:27;;;;;;;;;;;;;;;;;;344655;28;1137;-80
2021/10/28 01:44:38;;;;;;;;;;;;;;;;;;344982;28;1536;-80
2021/10/28 01:44:48;;;;;;;;;;;;;;;;;;345708;28;941;-81
2021/10/28 01:45:24;;;;;;;;;;;;;;;;;;346504;28;1008;-78
2021/10/28 01:45:35;;;;;;;;;;;;;;;;;;345850;28;1433;-79
2021/10/28 01:45:45;;;;;;;;;;;;;;;;;;344626;28;882;-74
2021/10/28 01:45:56;;;;;;;;;;;;;;;;;;344645;28;993;-78
2021/10/28 01:46:06;;;;;;;;;;;;;;;;;;344583;28;1040;-76
2021/10/28 01:46:17;;;;;;;;;;;;;;;;;;343158;28;1162;-78
2021/10/28 01:46:27;;;;;;;;;;;;;;;;;;343259;28;807;-79
2021/10/28 01:46:43;;;;;;;;;;;;;;;;;;342911;28;1025;-79
2021/10/28 01:47:03;;;;;;;;;;;;;;;;;;343295;28;969;-73
2021/10/28 01:47:16;;;;;;;;;;;;;;;;;;341860;29;914;-76
2021/10/28 01:47:27;;;;;;;;;;;;;;;;;;343228;28;878;-73
2021/10/28 01:47:52;;;;;;;;;;;;;;;;;;343272;28;835;-78
2021/10/28 01:48:04;;;;;;;;;;;;;;;;;;344627;28;516;-75
2021/10/28 01:48:14;;;;;;;;;;;;;;;;;;346752;28;1264;-80
2021/10/28 01:48:25;;;;;;;;;;;;;;;;;;347341;28;988;-78
2021/10/28 01:48:37;;;;;;;;;;;;;;;;;;347324;28;976;-81
2021/10/28 01:48:48;;;;;;;;;;;;;;;;;;347320;28;980;-79
2021/10/28 01:48:58;;;;;;;;;;;;;;;;;;345940;28;953;-79
2021/10/28 01:49:19;;;;;;;;;;;;;;;;;;344608;28;894;-80
2021/10/28 01:49:29;;;;;;;;;;;;;;;;;;345951;28;977;-80
2021/10/28 01:50:07;;;;;;;;;;;;;;;;;;345809;28;1375;-78
2021/10/28 01:50:17;;;;;;;;;;;;;;;;;;347303;28;969;-81
2021/10/28 01:50:28;;;;;;;;;;;;;;;;;;346001;28;957;-78
2021/10/28 01:50:40;;;;;;;;;;;;;;;;;;345983;28;846;-77
2021/10/28 01:50:50;;;;;;;;;;;;;;;;;;346138;28;842;-78
2021/10/28 01:51:01;;;;;;;;;;;;;;;;;;347382;28;920;-80
2021/10/28 01:51:12;;;;;;;;;;;;;;;;;;348723;28;1090;-82
2021/10/28 01:51:23;;;;;;;;;;;;;;;;;;348542;28;1437;-79
2021/10/28 01:51:33;;;;;;;;;;;;;;;;;;348723;28;861;-80
2021/10/28 01:52:25;;;;;;;;;;;;;;;;;;347328;28;787;-80
2021/10/28 01:52:38;;;;;;;;;;;;;;;;;;347327;28;989;-80
2021/10/28 01:52:48;;;;;;;;;;;;;;;;;;347232;28;750;-80
2021/10/28 01:52:58;;;;;;;;;;;;;;;;;;347228;28;929;-80
2021/10/28 01:53:09;;;;;;;;;;;;;;;;;;347321;28;929;-78
2021/10/28 01:53:20;;;;;;;;;;;;;;;;;;348167;28;842;-77
2021/10/28 01:53:30;;;;;;;;;;;;;;;;;;348620;28;1271;-80
2021/10/28 01:53:46;;;;;;;;;;;;;;;;;;347225;28;1165;-79
2021/10/28 01:53:57;;;;;;;;;;;;;;;;;;347313;28;981;-79
2021/10/28 01:54:07;;;;;;;;;;;;;;;;;;347299;28;897;-81
2021/10/28 01:54:18;;;;;;;;;;;;;;;;;;347328;28;862;-80
2021/10/28 01:54:31;;;;;;;;;;;;;;;;;;347384;28;850;-80
2021/10/28 01:54:42;;;;;;;;;;;;;;;;;;345953;28;826;-80
2021/10/28 01:54:52;;;;;;;;;;;;;;;;;;345963;28;1005;-78
2021/10/28 01:55:29;;;;;;;;;;;;;;;;;;346986;28;1033;-80
2021/10/28 01:55:39;;;;;;;;;;;;;;;;;;348407;28;834;-79
2021/10/28 01:55:49;;;;;;;;;;;;;;;;;;348641;28;1129;-80
2021/10/28 01:56:00;;;;;;;;;;;;;;;;;;348728;28;976;-80
2021/10/28 01:56:25;;;;;;;;;;;;;;;;;;348620;28;1015;-80
2021/10/28 01:56:36;;;;;;;;;;;;;;;;;;349218;28;1044;-81
2021/10/28 01:56:53;;;;;;;;;;;;;;;;;;347047;28;1308;-82
2021/10/28 01:57:03;;;;;;;;;;;;;;;;;;347337;28;1215;-79
2021/10/28 01:57:21;;;;;;;;;;;;;;;;;;345918;28;882;-76
2021/10/28 01:57:47;;;;;;;;;;;;;;;;;;345951;28;949;-80
2021/10/28 01:57:58;;;;;;;;;;;;;;;;;;345815;28;862;-81
2021/10/28 01:58:10;;;;;;;;;;;;;;;;;;345957;28;945;-78
2021/10/28 01:58:24;;;;;;;;;;;;;;;;;;345903;28;992;-80
2021/10/28 01:58:40;;;;;;;;;;;;;;;;;;346619;28;854;-77